sensor_id;sensor_type;location;lat;lon;timestamp;pressure;altitude;pressure_sealevel;temperature;humidity
8059;BME280;4072;42.668;23.396;2023-05-12T00:00:49;95353.53;;;9.83;100.00
8059;BME280;4072;42.668;23.396;2023-05-12T00:03:18;95351.59;;;9.71;100.00
8059;BME280;4072;42.668;23.396;2023-05-12T00:05:46;95301.91;;;9.31;100.00
8059;BME280;4072;42.668;23.396;2023-05-12T00:08:14;95343.81;;;9.61;100.00
8059;BME280;4072;42.668;23.396;2023-05-12T00:10:42;95353.00;;;9.63;100.00
8059;BME280;4072;42.668;23.396;2023-05-12T00:13:12;95355.16;;;9.56;100.00
8059;BME280;4072;42.668;23.396;2023-05-12T00:15:40;95310.66;;;9.23;100.00
8059;BME280;4072;42.668;23.396;2023-05-12T00:18:08;95355.69;;;9.38;100.00
8059;BME280;4072;42.668;23.396;2023-05-12T00:20:37;95333.66;;;9.27;100.00
8059;BME280;4072;42.668;23.396;2023-05-12T00:23:05;95310.97;;;9.12;100.00
8059;BME280;4072;42.668;23.396;2023-05-12T00:25:33;95346.41;;;9.39;100.00
8059;BME280;4072;42.668;23.396;2023-05-12T00:28:01;95350.28;;;9.38;100.00
8059;BME280;4072;42.668;23.396;2023-05-12T00:30:30;95267.34;;;8.76;100.00
8059;BME280;4072;42.668;23.396;2023-05-12T00:32:58;95353.53;;;9.33;100.00
8059;BME280;4072;42.668;23.396;2023-05-12T00:35:27;95278.56;;;8.87;100.00
8059;BME280;4072;42.668;23.396;2023-05-12T00:37:55;95350.28;;;9.38;100.00
8059;BME280;4072;42.668;23.396;2023-05-12T00:40:23;95346.09;;;9.37;100.00
8059;BME280;4072;42.668;23.396;2023-05-12T00:42:51;95357.44;;;9.32;100.00
8059;BME280;4072;42.668;23.396;2023-05-12T00:45:19;95348.44;;;9.23;100.00
8059;BME280;4072;42.668;23.396;2023-05-12T00:47:50;95326.94;;;8.94;100.00
8059;BME280;4072;42.668;23.396;2023-05-12T00:50:19;95355.34;;;9.11;100.00
8059;BME280;4072;42.668;23.396;2023-05-12T00:52:48;95356.50;;;9.10;100.00
8059;BME280;4072;42.668;23.396;2023-05-12T00:55:16;95355.88;;;9.06;100.00
8059;BME280;4072;42.668;23.396;2023-05-12T00:57:44;95353.72;;;9.01;100.00
8059;BME280;4072;42.668;23.396;2023-05-12T01:00:13;95362.34;;;9.08;100.00
8059;BME280;4072;42.668;23.396;2023-05-12T01:02:41;95369.25;;;8.97;100.00
8059;BME280;4072;42.668;23.396;2023-05-12T01:05:11;95368.56;;;8.93;100.00
8059;BME280;4072;42.668;23.396;2023-05-12T01:07:39;95368.75;;;8.86;100.00
8059;BME280;4072;42.668;23.396;2023-05-12T01:10:18;95330.47;;;8.50;100.00
8059;BME280;4072;42.668;23.396;2023-05-12T01:12:47;95301.56;;;8.22;100.00
8059;BME280;4072;42.668;23.396;2023-05-12T01:15:16;95380.47;;;8.67;100.00
8059;BME280;4072;42.668;23.396;2023-05-12T01:17:48;95372.00;;;8.52;100.00
8059;BME280;4072;42.668;23.396;2023-05-12T01:20:21;95382.41;;;8.38;100.00
8059;BME280;4072;42.668;23.396;2023-05-12T01:22:53;95375.03;;;8.26;100.00
8059;BME280;4072;42.668;23.396;2023-05-12T01:25:22;95336.97;;;7.92;100.00
8059;BME280;4072;42.668;23.396;2023-05-12T01:27:52;95381.41;;;8.16;100.00
8059;BME280;4072;42.668;23.396;2023-05-12T01:30:22;95385.78;;;8.26;100.00
8059;BME280;4072;42.668;23.396;2023-05-12T01:32:51;95322.31;;;7.93;100.00
8059;BME280;4072;42.668;23.396;2023-05-12T01:35:20;95377.31;;;8.40;100.00
8059;BME280;4072;42.668;23.396;2023-05-12T01:37:48;95380.78;;;8.40;100.00
8059;BME280;4072;42.668;23.396;2023-05-12T01:40:16;95379.19;;;8.43;100.00
8059;BME280;4072;42.668;23.396;2023-05-12T01:42:44;95344.41;;;8.16;100.00
8059;BME280;4072;42.668;23.396;2023-05-12T01:45:13;95383.72;;;8.46;100.00
8059;BME280;4072;42.668;23.396;2023-05-12T01:47:41;95376.09;;;8.57;100.00
8059;BME280;4072;42.668;23.396;2023-05-12T01:50:10;95386.94;;;8.41;100.00
8059;BME280;4072;42.668;23.396;2023-05-12T01:52:37;95254.34;;;7.57;100.00
8059;BME280;4072;42.668;23.396;2023-05-12T01:55:06;95381.91;;;8.27;100.00
8059;BME280;4072;42.668;23.396;2023-05-12T01:57:34;95393.53;;;8.24;100.00
8059;BME280;4072;42.668;23.396;2023-05-12T02:00:03;95306.09;;;7.48;100.00
8059;BME280;4072;42.668;23.396;2023-05-12T02:02:32;95381.25;;;7.91;100.00
8059;BME280;4072;42.668;23.396;2023-05-12T02:05:01;95389.97;;;7.79;100.00
8059;BME280;4072;42.668;23.396;2023-05-12T02:07:29;95392.84;;;7.72;100.00
8059;BME280;4072;42.668;23.396;2023-05-12T02:09:57;95393.84;;;7.78;100.00
8059;BME280;4072;42.668;23.396;2023-05-12T02:12:25;95392.78;;;7.75;100.00
8059;BME280;4072;42.668;23.396;2023-05-12T02:14:53;95392.34;;;7.77;100.00
8059;BME280;4072;42.668;23.396;2023-05-12T02:17:21;95394.53;;;7.82;100.00
8059;BME280;4072;42.668;23.396;2023-05-12T02:19:52;95394.09;;;7.67;100.00
8059;BME280;4072;42.668;23.396;2023-05-12T02:22:20;95402.22;;;7.48;100.00
8059;BME280;4072;42.668;23.396;2023-05-12T02:24:48;95403.75;;;7.49;100.00
8059;BME280;4072;42.668;23.396;2023-05-12T02:27:16;95393.47;;;7.44;100.00
8059;BME280;4072;42.668;23.396;2023-05-12T02:29:44;95393.97;;;7.39;100.00
8059;BME280;4072;42.668;23.396;2023-05-12T02:32:12;95312.28;;;6.78;100.00
8059;BME280;4072;42.668;23.396;2023-05-12T02:34:40;95399.50;;;7.32;100.00
8059;BME280;4072;42.668;23.396;2023-05-12T02:37:09;95399.31;;;7.23;100.00
8059;BME280;4072;42.668;23.396;2023-05-12T02:39:37;95348.50;;;6.89;100.00
8059;BME280;4072;42.668;23.396;2023-05-12T02:42:06;95324.97;;;6.58;100.00
8059;BME280;4072;42.668;23.396;2023-05-12T02:44:34;95395.25;;;7.15;100.00
8059;BME280;4072;42.668;23.396;2023-05-12T02:47:02;95405.38;;;7.07;100.00
8059;BME280;4072;42.668;23.396;2023-05-12T02:49:30;95300.00;;;6.38;100.00
8059;BME280;4072;42.668;23.396;2023-05-12T02:51:58;95402.00;;;7.03;100.00
8059;BME280;4072;42.668;23.396;2023-05-12T02:54:27;95397.75;;;7.06;100.00
8059;BME280;4072;42.668;23.396;2023-05-12T02:56:55;95391.66;;;7.02;100.00
8059;BME280;4072;42.668;23.396;2023-05-12T02:59:23;95354.31;;;6.88;100.00
8059;BME280;4072;42.668;23.396;2023-05-12T03:01:51;95364.22;;;6.91;100.00
8059;BME280;4072;42.668;23.396;2023-05-12T03:04:19;95395.13;;;7.02;100.00
8059;BME280;4072;42.668;23.396;2023-05-12T03:06:47;95392.69;;;7.08;100.00
8059;BME280;4072;42.668;23.396;2023-05-12T03:09:16;95371.06;;;6.95;100.00
8059;BME280;4072;42.668;23.396;2023-05-12T03:11:45;95378.78;;;6.93;100.00
8059;BME280;4072;42.668;23.396;2023-05-12T03:14:13;95401.81;;;7.14;100.00
8059;BME280;4072;42.668;23.396;2023-05-12T03:16:41;95372.56;;;6.96;100.00
8059;BME280;4072;42.668;23.396;2023-05-12T03:19:09;95379.41;;;7.01;100.00
8059;BME280;4072;42.668;23.396;2023-05-12T03:21:37;95374.31;;;6.87;100.00
8059;BME280;4072;42.668;23.396;2023-05-12T03:24:05;95401.47;;;7.12;100.00
8059;BME280;4072;42.668;23.396;2023-05-12T03:26:34;95402.63;;;7.11;100.00
8059;BME280;4072;42.668;23.396;2023-05-12T03:29:03;95400.78;;;7.08;100.00
8059;BME280;4072;42.668;23.396;2023-05-12T03:31:31;95397.59;;;7.13;100.00
8059;BME280;4072;42.668;23.396;2023-05-12T03:33:59;95404.34;;;7.21;100.00
8059;BME280;4072;42.668;23.396;2023-05-12T03:36:27;95378.56;;;7.04;100.00
8059;BME280;4072;42.668;23.396;2023-05-12T03:38:55;95422.84;;;7.19;100.00
8059;BME280;4072;42.668;23.396;2023-05-12T03:41:23;95420.91;;;7.19;100.00
8059;BME280;4072;42.668;23.396;2023-05-12T03:43:51;95417.13;;;7.17;100.00
8059;BME280;4072;42.668;23.396;2023-05-12T03:46:20;95404.66;;;7.07;100.00
8059;BME280;4072;42.668;23.396;2023-05-12T03:48:48;95395.41;;;7.08;100.00
8059;BME280;4072;42.668;23.396;2023-05-12T03:51:16;95304.97;;;6.39;100.00
8059;BME280;4072;42.668;23.396;2023-05-12T03:53:44;95422.00;;;7.22;100.00
8059;BME280;4072;42.668;23.396;2023-05-12T03:56:13;95415.38;;;7.26;100.00
8059;BME280;4072;42.668;23.396;2023-05-12T03:58:42;95409.66;;;7.24;100.00
8059;BME280;4072;42.668;23.396;2023-05-12T04:01:12;95414.47;;;7.33;100.00
8059;BME280;4072;42.668;23.396;2023-05-12T04:03:41;95414.31;;;7.40;100.00
8059;BME280;4072;42.668;23.396;2023-05-12T04:06:09;95410.88;;;7.39;100.00
8059;BME280;4072;42.668;23.396;2023-05-12T04:08:37;95406.91;;;7.44;100.00
8059;BME280;4072;42.668;23.396;2023-05-12T04:11:07;95429.50;;;7.50;100.00
8059;BME280;4072;42.668;23.396;2023-05-12T04:13:36;95429.13;;;7.48;100.00
8059;BME280;4072;42.668;23.396;2023-05-12T04:16:04;95432.03;;;7.57;100.00
8059;BME280;4072;42.668;23.396;2023-05-12T04:18:32;95425.81;;;7.60;100.00
8059;BME280;4072;42.668;23.396;2023-05-12T04:21:02;95434.38;;;7.55;100.00
8059;BME280;4072;42.668;23.396;2023-05-12T04:23:31;95425.47;;;7.58;100.00
8059;BME280;4072;42.668;23.396;2023-05-12T04:26:02;95300.66;;;6.81;100.00
8059;BME280;4072;42.668;23.396;2023-05-12T04:28:30;95387.75;;;7.42;100.00
8059;BME280;4072;42.668;23.396;2023-05-12T04:31:01;95428.91;;;7.58;100.00
8059;BME280;4072;42.668;23.396;2023-05-12T04:33:30;95419.59;;;7.63;100.00
8059;BME280;4072;42.668;23.396;2023-05-12T04:35:58;95424.81;;;7.70;100.00
8059;BME280;4072;42.668;23.396;2023-05-12T04:38:27;95425.31;;;7.65;100.00
8059;BME280;4072;42.668;23.396;2023-05-12T04:40:59;95422.88;;;7.70;100.00
8059;BME280;4072;42.668;23.396;2023-05-12T04:43:27;95426.84;;;7.82;100.00
8059;BME280;4072;42.668;23.396;2023-05-12T04:45:58;95416.06;;;7.82;100.00
8059;BME280;4072;42.668;23.396;2023-05-12T04:48:27;95417.94;;;7.85;100.00
8059;BME280;4072;42.668;23.396;2023-05-12T04:50:57;95353.25;;;7.37;100.00
8059;BME280;4072;42.668;23.396;2023-05-12T04:53:25;95422.38;;;7.91;100.00
8059;BME280;4072;42.668;23.396;2023-05-12T04:55:54;95429.72;;;7.91;100.00
8059;BME280;4072;42.668;23.396;2023-05-12T04:58:22;95424.59;;;7.96;100.00
8059;BME280;4072;42.668;23.396;2023-05-12T05:00:50;95333.06;;;7.29;100.00
8059;BME280;4072;42.668;23.396;2023-05-12T05:03:18;95424.84;;;8.02;100.00
8059;BME280;4072;42.668;23.396;2023-05-12T05:05:46;95425.44;;;7.93;100.00
8059;BME280;4072;42.668;23.396;2023-05-12T05:08:14;95423.47;;;7.94;100.00
8059;BME280;4072;42.668;23.396;2023-05-12T05:10:42;95424.91;;;7.98;100.00
8059;BME280;4072;42.668;23.396;2023-05-12T05:13:12;95435.69;;;7.98;100.00
8059;BME280;4072;42.668;23.396;2023-05-12T05:15:48;95353.69;;;7.51;100.00
8059;BME280;4072;42.668;23.396;2023-05-12T05:18:16;95427.19;;;8.00;100.00
8059;BME280;4072;42.668;23.396;2023-05-12T05:20:48;95408.66;;;7.86;100.00
8059;BME280;4072;42.668;23.396;2023-05-12T05:23:24;95388.47;;;7.78;100.00
8059;BME280;4072;42.668;23.396;2023-05-12T05:25:52;95426.34;;;8.03;100.00
8059;BME280;4072;42.668;23.396;2023-05-12T05:28:21;95386.44;;;7.66;100.00
8059;BME280;4072;42.668;23.396;2023-05-12T05:30:49;95432.41;;;8.07;100.00
8059;BME280;4072;42.668;23.396;2023-05-12T05:33:18;95434.78;;;8.05;100.00
8059;BME280;4072;42.668;23.396;2023-05-12T05:35:46;95425.69;;;7.99;100.00
8059;BME280;4072;42.668;23.396;2023-05-12T05:38:15;95432.25;;;8.14;100.00
8059;BME280;4072;42.668;23.396;2023-05-12T05:40:43;95351.88;;;7.64;100.00
8059;BME280;4072;42.668;23.396;2023-05-12T05:43:19;95446.13;;;8.12;100.00
8059;BME280;4072;42.668;23.396;2023-05-12T05:45:48;95444.41;;;8.22;100.00
8059;BME280;4072;42.668;23.396;2023-05-12T05:48:17;95433.97;;;8.24;100.00
8059;BME280;4072;42.668;23.396;2023-05-12T05:50:45;95419.03;;;8.03;100.00
8059;BME280;4072;42.668;23.396;2023-05-12T05:53:13;95443.56;;;8.25;100.00
8059;BME280;4072;42.668;23.396;2023-05-12T05:55:41;95429.16;;;8.31;100.00
8059;BME280;4072;42.668;23.396;2023-05-12T05:58:09;95435.72;;;8.30;100.00
8059;BME280;4072;42.668;23.396;2023-05-12T06:00:37;95438.94;;;8.25;100.00
8059;BME280;4072;42.668;23.396;2023-05-12T06:03:06;95418.28;;;8.19;100.00
8059;BME280;4072;42.668;23.396;2023-05-12T06:05:34;95444.66;;;8.27;100.00
8059;BME280;4072;42.668;23.396;2023-05-12T06:08:03;95440.19;;;8.37;100.00
8059;BME280;4072;42.668;23.396;2023-05-12T06:10:34;95445.59;;;8.37;100.00
8059;BME280;4072;42.668;23.396;2023-05-12T06:13:02;95410.69;;;8.14;100.00
8059;BME280;4072;42.668;23.396;2023-05-12T06:15:30;95441.59;;;8.41;100.00
8059;BME280;4072;42.668;23.396;2023-05-12T06:17:58;95451.06;;;8.49;100.00
8059;BME280;4072;42.668;23.396;2023-05-12T06:20:27;95443.53;;;8.57;100.00
8059;BME280;4072;42.668;23.396;2023-05-12T06:22:55;95443.94;;;8.55;100.00
8059;BME280;4072;42.668;23.396;2023-05-12T06:25:23;95443.53;;;8.57;100.00
8059;BME280;4072;42.668;23.396;2023-05-12T06:27:51;95448.00;;;8.63;100.00
8059;BME280;4072;42.668;23.396;2023-05-12T06:30:19;95441.34;;;8.52;100.00
8059;BME280;4072;42.668;23.396;2023-05-12T06:32:47;95407.34;;;8.26;100.00
8059;BME280;4072;42.668;23.396;2023-05-12T06:35:15;95448.72;;;8.64;100.00
8059;BME280;4072;42.668;23.396;2023-05-12T06:37:45;95429.06;;;8.51;100.00
8059;BME280;4072;42.668;23.396;2023-05-12T06:40:15;95452.44;;;8.70;100.00
8059;BME280;4072;42.668;23.396;2023-05-12T06:42:43;95456.47;;;8.78;100.00
8059;BME280;4072;42.668;23.396;2023-05-12T06:45:11;95442.56;;;8.79;100.00
8059;BME280;4072;42.668;23.396;2023-05-12T06:47:39;95454.41;;;8.98;100.00
8059;BME280;4072;42.668;23.396;2023-05-12T06:50:08;95432.84;;;8.82;100.00
8059;BME280;4072;42.668;23.396;2023-05-12T06:52:36;95438.25;;;8.82;100.00
8059;BME280;4072;42.668;23.396;2023-05-12T06:55:06;95465.50;;;9.00;100.00
8059;BME280;4072;42.668;23.396;2023-05-12T06:57:34;95459.06;;;9.10;100.00
8059;BME280;4072;42.668;23.396;2023-05-12T07:00:02;95450.66;;;9.08;100.00
8059;BME280;4072;42.668;23.396;2023-05-12T07:02:30;95398.03;;;8.59;100.00
8059;BME280;4072;42.668;23.396;2023-05-12T07:04:58;95452.88;;;8.97;100.00
8059;BME280;4072;42.668;23.396;2023-05-12T07:07:26;95450.84;;;9.01;100.00
8059;BME280;4072;42.668;23.396;2023-05-12T07:09:54;95463.16;;;9.02;100.00
8059;BME280;4072;42.668;23.396;2023-05-12T07:12:23;95435.31;;;9.05;100.00
8059;BME280;4072;42.668;23.396;2023-05-12T07:14:51;95464.72;;;9.28;100.00
8059;BME280;4072;42.668;23.396;2023-05-12T07:17:19;95311.84;;;8.27;100.00
8059;BME280;4072;42.668;23.396;2023-05-12T07:19:47;95461.19;;;9.31;100.00
8059;BME280;4072;42.668;23.396;2023-05-12T07:22:15;95432.66;;;9.18;100.00
8059;BME280;4072;42.668;23.396;2023-05-12T07:24:43;95457.16;;;9.23;100.00
8059;BME280;4072;42.668;23.396;2023-05-12T07:27:11;95442.91;;;9.23;100.00
8059;BME280;4072;42.668;23.396;2023-05-12T07:29:40;95437.41;;;9.14;100.00
8059;BME280;4072;42.668;23.396;2023-05-12T07:32:08;95436.88;;;9.31;100.00
8059;BME280;4072;42.668;23.396;2023-05-12T07:34:36;95456.69;;;9.53;100.00
8059;BME280;4072;42.668;23.396;2023-05-12T07:37:04;95415.63;;;9.33;100.00
8059;BME280;4072;42.668;23.396;2023-05-12T07:39:32;95463.06;;;9.59;100.00
8059;BME280;4072;42.668;23.396;2023-05-12T07:42:00;95468.47;;;9.59;100.00
8059;BME280;4072;42.668;23.396;2023-05-12T07:44:28;95430.88;;;9.52;100.00
8059;BME280;4072;42.668;23.396;2023-05-12T07:47:00;95460.81;;;9.83;100.00
8059;BME280;4072;42.668;23.396;2023-05-12T07:49:28;95453.63;;;9.92;100.00
8059;BME280;4072;42.668;23.396;2023-05-12T07:51:56;95399.66;;;9.51;100.00
8059;BME280;4072;42.668;23.396;2023-05-12T07:54:24;95430.69;;;9.84;100.00
8059;BME280;4072;42.668;23.396;2023-05-12T07:56:52;95431.75;;;9.99;100.00
8059;BME280;4072;42.668;23.396;2023-05-12T07:59:20;95450.81;;;10.21;100.00
8059;BME280;4072;42.668;23.396;2023-05-12T08:01:48;95453.41;;;10.24;100.00
8059;BME280;4072;42.668;23.396;2023-05-12T08:04:17;95457.69;;;10.34;100.00
8059;BME280;4072;42.668;23.396;2023-05-12T08:06:45;95455.63;;;10.51;100.00
8059;BME280;4072;42.668;23.396;2023-05-12T08:09:13;95453.38;;;10.83;100.00
8059;BME280;4072;42.668;23.396;2023-05-12T08:11:41;95447.41;;;10.88;100.00
8059;BME280;4072;42.668;23.396;2023-05-12T08:14:13;95449.00;;;10.64;100.00
8059;BME280;4072;42.668;23.396;2023-05-12T08:16:40;95454.97;;;10.93;100.00
8059;BME280;4072;42.668;23.396;2023-05-12T08:19:11;95444.66;;;11.01;100.00
8059;BME280;4072;42.668;23.396;2023-05-12T08:21:40;95433.78;;;10.79;100.00
8059;BME280;4072;42.668;23.396;2023-05-12T08:24:08;95402.91;;;10.55;100.00
8059;BME280;4072;42.668;23.396;2023-05-12T08:26:36;95453.31;;;10.96;100.00
8059;BME280;4072;42.668;23.396;2023-05-12T08:29:04;95429.03;;;11.05;100.00
8059;BME280;4072;42.668;23.396;2023-05-12T08:31:34;95454.78;;;11.31;100.00
8059;BME280;4072;42.668;23.396;2023-05-12T08:34:03;95451.63;;;11.32;100.00
8059;BME280;4072;42.668;23.396;2023-05-12T08:36:36;95450.06;;;11.22;100.00
8059;BME280;4072;42.668;23.396;2023-05-12T08:39:06;95452.84;;;11.31;100.00
8059;BME280;4072;42.668;23.396;2023-05-12T08:41:41;95450.97;;;11.62;100.00
8059;BME280;4072;42.668;23.396;2023-05-12T08:44:10;95457.25;;;11.59;100.00
8059;BME280;4072;42.668;23.396;2023-05-12T08:46:38;95449.00;;;11.63;100.00
8059;BME280;4072;42.668;23.396;2023-05-12T08:49:09;95443.97;;;11.83;100.00
8059;BME280;4072;42.668;23.396;2023-05-12T08:51:42;95454.19;;;11.57;100.00
8059;BME280;4072;42.668;23.396;2023-05-12T08:54:26;95445.41;;;11.44;100.00
8059;BME280;4072;42.668;23.396;2023-05-12T08:56:55;95403.59;;;11.24;100.00
8059;BME280;4072;42.668;23.396;2023-05-12T08:59:26;95448.16;;;11.53;100.00
8059;BME280;4072;42.668;23.396;2023-05-12T09:01:54;95448.91;;;11.75;100.00
8059;BME280;4072;42.668;23.396;2023-05-12T09:04:23;95441.50;;;11.98;100.00
8059;BME280;4072;42.668;23.396;2023-05-12T09:06:51;95448.22;;;12.24;100.00
8059;BME280;4072;42.668;23.396;2023-05-12T09:09:23;95441.00;;;12.30;100.00
8059;BME280;4072;42.668;23.396;2023-05-12T09:11:55;95382.63;;;11.67;100.00
8059;BME280;4072;42.668;23.396;2023-05-12T09:14:24;95428.06;;;12.34;100.00
8059;BME280;4072;42.668;23.396;2023-05-12T09:17:03;95434.78;;;12.20;100.00
8059;BME280;4072;42.668;23.396;2023-05-12T09:19:31;95425.28;;;12.16;100.00
8059;BME280;4072;42.668;23.396;2023-05-12T09:22:00;95422.34;;;12.41;100.00
8059;BME280;4072;42.668;23.396;2023-05-12T09:24:36;95412.03;;;12.18;100.00
8059;BME280;4072;42.668;23.396;2023-05-12T09:27:04;95428.47;;;12.23;100.00
8059;BME280;4072;42.668;23.396;2023-05-12T09:29:33;95422.66;;;12.61;100.00
8059;BME280;4072;42.668;23.396;2023-05-12T09:32:17;95426.75;;;12.83;100.00
8059;BME280;4072;42.668;23.396;2023-05-12T09:34:50;95409.72;;;12.92;100.00
8059;BME280;4072;42.668;23.396;2023-05-12T09:37:18;95430.66;;;12.73;100.00
8059;BME280;4072;42.668;23.396;2023-05-12T09:39:58;95419.06;;;12.91;100.00
8059;BME280;4072;42.668;23.396;2023-05-12T09:42:28;95423.16;;;12.95;100.00
8059;BME280;4072;42.668;23.396;2023-05-12T09:44:58;95418.31;;;13.35;100.00
8059;BME280;4072;42.668;23.396;2023-05-12T09:47:27;95418.06;;;13.75;100.00
8059;BME280;4072;42.668;23.396;2023-05-12T09:49:55;95427.31;;;14.10;100.00
8059;BME280;4072;42.668;23.396;2023-05-12T09:52:24;95434.84;;;14.15;100.00
8059;BME280;4072;42.668;23.396;2023-05-12T09:54:54;95417.00;;;14.46;100.00
8059;BME280;4072;42.668;23.396;2023-05-12T09:57:23;95394.47;;;13.81;99.28
8059;BME280;4072;42.668;23.396;2023-05-12T09:59:52;95425.03;;;14.41;95.51
8059;BME280;4072;42.668;23.396;2023-05-12T10:02:21;95424.94;;;14.59;89.94
8059;BME280;4072;42.668;23.396;2023-05-12T10:04:52;95420.38;;;14.65;88.28
8059;BME280;4072;42.668;23.396;2023-05-12T10:07:24;95418.94;;;14.79;88.58
8059;BME280;4072;42.668;23.396;2023-05-12T10:09:57;95407.28;;;15.16;85.48
8059;BME280;4072;42.668;23.396;2023-05-12T10:12:26;95402.59;;;15.31;82.29
8059;BME280;4072;42.668;23.396;2023-05-12T10:14:55;95407.34;;;15.45;82.46
8059;BME280;4072;42.668;23.396;2023-05-12T10:17:24;95405.78;;;15.30;77.97
8059;BME280;4072;42.668;23.396;2023-05-12T10:19:53;95410.47;;;15.15;78.03
8059;BME280;4072;42.668;23.396;2023-05-12T10:22:22;95405.06;;;15.44;78.21
8059;BME280;4072;42.668;23.396;2023-05-12T10:24:54;95382.31;;;15.61;77.36
8059;BME280;4072;42.668;23.396;2023-05-12T10:27:23;95399.97;;;15.95;74.16
8059;BME280;4072;42.668;23.396;2023-05-12T10:29:52;95407.84;;;16.07;72.12
8059;BME280;4072;42.668;23.396;2023-05-12T10:32:21;95369.44;;;16.11;71.77
8059;BME280;4072;42.668;23.396;2023-05-12T10:34:49;95401.31;;;15.70;73.61
8059;BME280;4072;42.668;23.396;2023-05-12T10:37:17;95387.03;;;15.46;75.23
8059;BME280;4072;42.668;23.396;2023-05-12T10:39:46;95400.47;;;14.97;72.76
8059;BME280;4072;42.668;23.396;2023-05-12T10:42:20;95375.94;;;14.59;75.60
8059;BME280;4072;42.668;23.396;2023-05-12T10:44:51;95331.59;;;14.44;74.67
8059;BME280;4072;42.668;23.396;2023-05-12T10:47:22;95364.53;;;14.69;74.87
8059;BME280;4072;42.668;23.396;2023-05-12T10:49:54;95392.13;;;15.01;73.93
8059;BME280;4072;42.668;23.396;2023-05-12T10:52:23;95389.69;;;15.17;76.40
8059;BME280;4072;42.668;23.396;2023-05-12T10:54:59;95381.34;;;15.35;75.12
8059;BME280;4072;42.668;23.396;2023-05-12T10:57:30;95390.34;;;15.12;73.66
8059;BME280;4072;42.668;23.396;2023-05-12T11:00:00;95390.94;;;15.31;74.65
8059;BME280;4072;42.668;23.396;2023-05-12T11:02:30;95392.66;;;15.72;72.61
8059;BME280;4072;42.668;23.396;2023-05-12T11:05:03;95380.75;;;16.04;70.04
8059;BME280;4072;42.668;23.396;2023-05-12T11:07:46;95378.56;;;15.59;64.95
8059;BME280;4072;42.668;23.396;2023-05-12T11:10:16;95397.94;;;15.46;67.21
8059;BME280;4072;42.668;23.396;2023-05-12T11:12:46;95399.72;;;15.49;67.77
8059;BME280;4072;42.668;23.396;2023-05-12T11:15:14;95399.22;;;15.94;66.96
8059;BME280;4072;42.668;23.396;2023-05-12T11:17:44;95365.84;;;16.19;65.42
8059;BME280;4072;42.668;23.396;2023-05-12T11:20:20;95399.22;;;16.63;63.88
8059;BME280;4072;42.668;23.396;2023-05-12T11:22:49;95395.94;;;16.59;61.86
8059;BME280;4072;42.668;23.396;2023-05-12T11:25:17;95385.03;;;16.59;60.97
8059;BME280;4072;42.668;23.396;2023-05-12T11:27:48;95402.09;;;16.94;58.86
8059;BME280;4072;42.668;23.396;2023-05-12T11:30:16;95406.84;;;17.19;57.16
8059;BME280;4072;42.668;23.396;2023-05-12T11:32:45;95398.88;;;17.16;55.33
8059;BME280;4072;42.668;23.396;2023-05-12T11:35:15;95404.34;;;16.96;57.51
8059;BME280;4072;42.668;23.396;2023-05-12T11:37:44;95398.13;;;16.95;57.06
8059;BME280;4072;42.668;23.396;2023-05-12T11:40:14;95406.81;;;16.94;58.35
8059;BME280;4072;42.668;23.396;2023-05-12T11:42:42;95408.28;;;16.55;58.95
8059;BME280;4072;42.668;23.396;2023-05-12T11:45:23;95393.31;;;16.30;60.53
8059;BME280;4072;42.668;23.396;2023-05-12T11:47:53;95386.44;;;16.20;61.52
8059;BME280;4072;42.668;23.396;2023-05-12T11:50:31;95412.91;;;16.14;60.77
8059;BME280;4072;42.668;23.396;2023-05-12T11:52:59;95401.88;;;15.45;63.28
8059;BME280;4072;42.668;23.396;2023-05-12T11:55:27;95403.00;;;15.53;63.94
8059;BME280;4072;42.668;23.396;2023-05-12T11:57:58;95403.56;;;15.57;62.42
8059;BME280;4072;42.668;23.396;2023-05-12T12:00:30;95401.50;;;15.52;65.25
8059;BME280;4072;42.668;23.396;2023-05-12T12:03:09;95403.28;;;15.84;65.32
8059;BME280;4072;42.668;23.396;2023-05-12T12:05:39;95386.66;;;15.53;64.98
8059;BME280;4072;42.668;23.396;2023-05-12T12:08:09;95383.22;;;15.29;66.54
8059;BME280;4072;42.668;23.396;2023-05-12T12:10:38;95404.44;;;15.11;69.70
8059;BME280;4072;42.668;23.396;2023-05-12T12:13:06;95407.06;;;15.05;70.70
8059;BME280;4072;42.668;23.396;2023-05-12T12:15:36;95408.97;;;15.28;69.82
8059;BME280;4072;42.668;23.396;2023-05-12T12:18:04;95415.97;;;15.44;64.02
8059;BME280;4072;42.668;23.396;2023-05-12T12:20:34;95406.03;;;15.55;63.28
8059;BME280;4072;42.668;23.396;2023-05-12T12:23:01;95425.00;;;15.79;61.84
8059;BME280;4072;42.668;23.396;2023-05-12T12:25:29;95411.47;;;15.70;63.43
8059;BME280;4072;42.668;23.396;2023-05-12T12:27:57;95406.69;;;15.65;61.71
8059;BME280;4072;42.668;23.396;2023-05-12T12:30:25;95406.31;;;15.19;63.83
8059;BME280;4072;42.668;23.396;2023-05-12T12:32:55;95408.84;;;15.46;64.31
8059;BME280;4072;42.668;23.396;2023-05-12T12:35:23;95392.19;;;15.73;63.58
8059;BME280;4072;42.668;23.396;2023-05-12T12:37:51;95387.94;;;15.43;61.75
8059;BME280;4072;42.668;23.396;2023-05-12T12:40:19;95410.16;;;15.65;61.27
8059;BME280;4072;42.668;23.396;2023-05-12T12:42:47;95400.66;;;15.08;62.34
8059;BME280;4072;42.668;23.396;2023-05-12T12:45:15;95414.13;;;15.26;63.36
8059;BME280;4072;42.668;23.396;2023-05-12T12:47:46;95408.25;;;15.71;62.80
8059;BME280;4072;42.668;23.396;2023-05-12T12:50:15;95405.44;;;15.80;62.54
8059;BME280;4072;42.668;23.396;2023-05-12T12:52:43;95411.09;;;15.62;62.89
8059;BME280;4072;42.668;23.396;2023-05-12T12:55:11;95410.31;;;15.47;61.06
8059;BME280;4072;42.668;23.396;2023-05-12T12:57:39;95417.22;;;15.19;62.83
8059;BME280;4072;42.668;23.396;2023-05-12T13:00:08;95405.53;;;15.04;63.06
8059;BME280;4072;42.668;23.396;2023-05-12T13:02:36;95413.47;;;15.17;62.26
8059;BME280;4072;42.668;23.396;2023-05-12T13:05:05;95403.22;;;15.12;61.33
8059;BME280;4072;42.668;23.396;2023-05-12T13:07:35;95378.28;;;14.90;61.27
8059;BME280;4072;42.668;23.396;2023-05-12T13:10:03;95395.63;;;15.16;64.19
8059;BME280;4072;42.668;23.396;2023-05-12T13:12:31;95360.53;;;14.56;65.76
8059;BME280;4072;42.668;23.396;2023-05-12T13:14:59;95388.72;;;14.91;64.25
8059;BME280;4072;42.668;23.396;2023-05-12T13:17:28;95397.56;;;15.39;62.97
8059;BME280;4072;42.668;23.396;2023-05-12T13:19:56;95381.25;;;15.30;62.88